createdAt,value
2024-04-09T00:01:42.237Z,18.64
2024-04-09T00:04:09.623Z,18.62
2024-04-09T00:06:37.280Z,18.58
2024-04-09T00:09:07.321Z,18.63
2024-04-09T00:11:34.798Z,18.59
2024-04-09T00:14:05.548Z,18.61
2024-04-09T00:16:34.992Z,18.55
2024-04-09T00:19:02.682Z,18.63
2024-04-09T00:21:31.282Z,18.50
2024-04-09T00:23:59.677Z,18.49
2024-04-09T00:26:29.674Z,18.45
2024-04-09T00:28:57.240Z,18.49
2024-04-09T00:31:26.177Z,18.43
2024-04-09T00:33:54.116Z,18.42
2024-04-09T00:36:21.586Z,18.33
2024-04-09T00:38:49.304Z,18.34
2024-04-09T00:41:19.460Z,18.29
2024-04-09T00:43:48.787Z,18.31
2024-04-09T00:46:17.247Z,18.28
2024-04-09T00:48:45.677Z,18.26
2024-04-09T00:51:16.132Z,18.18
2024-04-09T00:53:45.431Z,18.17
2024-04-09T00:56:14.081Z,18.15
2024-04-09T00:58:41.662Z,18.18
2024-04-09T01:01:14.597Z,18.23
2024-04-09T01:03:42.136Z,18.16
2024-04-09T01:06:10.658Z,18.17
2024-04-09T01:08:38.646Z,18.18
2024-04-09T01:11:06.156Z,18.18
2024-04-09T01:13:33.520Z,18.15
2024-04-09T01:16:02.494Z,18.23
2024-04-09T01:18:29.944Z,18.18
2024-04-09T01:20:57.249Z,18.17
2024-04-09T01:23:24.499Z,18.08
2024-04-09T01:25:51.906Z,18.06
2024-04-09T01:28:19.932Z,18.07
2024-04-09T01:30:47.982Z,18.04
2024-04-09T01:33:15.689Z,18.00
2024-04-09T01:35:44.196Z,18.02
2024-04-09T01:38:11.432Z,18.02
2024-04-09T01:40:38.923Z,17.97
2024-04-09T01:43:06.243Z,17.97
2024-04-09T01:45:34.142Z,17.98
2024-04-09T01:48:01.900Z,18.05
2024-04-09T01:50:29.140Z,18.03
2024-04-09T01:52:56.324Z,18.00
2024-04-09T01:55:24.026Z,18.03
2024-04-09T01:57:51.250Z,17.99
2024-04-09T02:00:22.741Z,17.97
2024-04-09T02:02:54.184Z,17.94
2024-04-09T02:05:22.528Z,17.86
2024-04-09T02:07:50.021Z,17.85
2024-04-09T02:10:17.325Z,17.88
2024-04-09T02:12:45.203Z,17.84
2024-04-09T02:15:14.323Z,17.80
2024-04-09T02:17:42.191Z,17.86
2024-04-09T02:20:11.668Z,17.82
2024-04-09T02:22:39.063Z,17.77
2024-04-09T02:25:06.514Z,17.73
2024-04-09T02:27:34.260Z,17.75
2024-04-09T02:30:04.252Z,17.69
2024-04-09T02:32:33.083Z,17.70
2024-04-09T02:35:02.589Z,17.69
2024-04-09T02:37:29.880Z,17.61
2024-04-09T02:39:57.719Z,17.64
2024-04-09T02:42:26.128Z,17.57
2024-04-09T02:44:53.855Z,17.56
2024-04-09T02:47:22.007Z,17.58
2024-04-09T02:49:49.252Z,17.60
2024-04-09T02:52:16.469Z,17.54
2024-04-09T02:54:43.884Z,17.52
2024-04-09T02:57:11.820Z,17.43
2024-04-09T02:59:40.631Z,17.42
2024-04-09T03:02:08.250Z,17.39
2024-04-09T03:04:35.819Z,17.37
2024-04-09T03:07:05.036Z,17.44
2024-04-09T03:09:33.101Z,17.39
2024-04-09T03:12:02.369Z,17.41
2024-04-09T03:14:30.792Z,17.40
2024-04-09T03:16:58.541Z,17.35
2024-04-09T03:19:25.728Z,17.34
2024-04-09T03:21:52.794Z,17.36
2024-04-09T03:24:20.102Z,17.28
2024-04-09T03:26:47.292Z,17.26
2024-04-09T03:29:14.589Z,17.26
2024-04-09T03:31:41.795Z,17.24
2024-04-09T03:34:09.294Z,17.19
2024-04-09T03:36:37.312Z,17.16
2024-04-09T03:39:05.790Z,17.07
2024-04-09T03:41:33.212Z,17.06
2024-04-09T03:44:01.482Z,17.03
2024-04-09T03:46:28.668Z,17.10
2024-04-09T03:48:58.993Z,17.08
2024-04-09T03:51:26.388Z,17.00
2024-04-09T03:53:53.656Z,17.00
2024-04-09T03:56:20.877Z,16.93
2024-04-09T03:58:51.238Z,16.87
2024-04-09T04:01:19.062Z,16.92
2024-04-09T04:03:48.057Z,16.87
2024-04-09T04:06:16.315Z,16.81
2024-04-09T04:08:44.864Z,16.81
2024-04-09T04:11:14.161Z,16.81
2024-04-09T04:13:42.340Z,16.72
2024-04-09T04:16:11.623Z,16.79
2024-04-09T04:18:44.470Z,16.68
2024-04-09T04:21:14.317Z,16.71
2024-04-09T04:23:42.262Z,16.69
2024-04-09T04:26:20.498Z,16.70
2024-04-09T04:28:49.153Z,16.71
2024-04-09T04:31:21.265Z,16.72
2024-04-09T04:33:51.084Z,16.66
2024-04-09T04:36:19.853Z,16.64
2024-04-09T04:38:48.618Z,16.62
2024-04-09T04:41:16.356Z,16.78
2024-04-09T04:43:43.663Z,16.69
2024-04-09T04:46:11.328Z,16.62
2024-04-09T04:48:39.557Z,16.65
2024-04-09T04:51:07.385Z,16.63
2024-04-09T04:53:34.960Z,16.61
2024-04-09T04:56:02.476Z,16.72
2024-04-09T04:58:29.754Z,16.58
2024-04-09T05:00:57.249Z,16.53
2024-04-09T05:03:25.053Z,16.50
2024-04-09T05:05:52.350Z,16.53
2024-04-09T05:08:20.245Z,16.51
2024-04-09T05:10:47.526Z,16.58
2024-04-09T05:13:14.786Z,16.57
2024-04-09T05:15:42.074Z,16.56
2024-04-09T05:18:10.782Z,16.55
2024-04-09T05:20:40.757Z,16.52
2024-04-09T05:23:08.906Z,16.53
2024-04-09T05:25:36.750Z,16.57
2024-04-09T05:28:04.250Z,16.56
2024-04-09T05:30:31.628Z,16.55
2024-04-09T05:32:59.190Z,16.57
2024-04-09T05:35:27.664Z,16.64
2024-04-09T05:37:55.273Z,16.67
2024-04-09T05:40:23.574Z,16.72
2024-04-09T05:42:50.981Z,16.71
2024-04-09T05:45:23.208Z,16.72
2024-04-09T05:47:50.688Z,16.79
2024-04-09T05:50:18.031Z,16.81
2024-04-09T05:52:45.345Z,16.80
2024-04-09T05:55:13.998Z,16.80
2024-04-09T05:57:42.380Z,16.90
2024-04-09T06:00:16.137Z,16.95
2024-04-09T06:02:46.110Z,16.99
2024-04-09T06:05:13.337Z,17.01
2024-04-09T06:07:40.522Z,17.07
2024-04-09T06:10:08.002Z,17.01
2024-04-09T06:12:35.349Z,17.07
2024-04-09T06:15:02.996Z,17.27
2024-04-09T06:17:30.393Z,17.41
2024-04-09T06:19:58.953Z,17.52
2024-04-09T06:22:26.660Z,17.67
2024-04-09T06:24:54.103Z,17.71
2024-04-09T06:27:22.511Z,17.78
2024-04-09T06:29:49.729Z,17.92
2024-04-09T06:32:17.004Z,18.10
2024-04-09T06:34:44.298Z,18.04
2024-04-09T06:37:11.911Z,18.17
2024-04-09T06:39:39.399Z,17.99
2024-04-09T06:42:06.803Z,18.22
2024-04-09T06:44:34.289Z,18.27
2024-04-09T06:47:01.471Z,18.15
2024-04-09T06:49:28.779Z,18.08
2024-04-09T06:51:55.984Z,18.22
2024-04-09T06:54:23.275Z,18.31
2024-04-09T06:56:50.572Z,18.48
2024-04-09T06:59:18.519Z,18.51
2024-04-09T07:01:46.205Z,18.45
2024-04-09T07:04:14.140Z,18.41
2024-04-09T07:06:41.606Z,18.54
2024-04-09T07:09:08.953Z,18.66
2024-04-09T07:11:36.429Z,18.80
2024-04-09T07:14:04.087Z,18.76
2024-04-09T07:16:31.828Z,18.91
2024-04-09T07:18:59.214Z,18.84
2024-04-09T07:21:26.896Z,18.87
2024-04-09T07:23:54.242Z,18.90
2024-04-09T07:26:21.839Z,19.08
2024-04-09T07:28:50.100Z,19.26
2024-04-09T07:31:17.751Z,19.37
2024-04-09T07:33:48.623Z,19.23
2024-04-09T07:36:16.131Z,19.31
2024-04-09T07:38:43.387Z,19.22
2024-04-09T07:41:10.726Z,19.38
2024-04-09T07:43:40.725Z,19.49
2024-04-09T07:46:08.555Z,19.74
2024-04-09T07:48:36.056Z,19.66
2024-04-09T07:51:04.811Z,19.78
2024-04-09T07:53:32.342Z,19.98
2024-04-09T07:56:04.527Z,19.99
2024-04-09T07:58:32.407Z,19.92
2024-04-09T08:01:00.847Z,19.66
2024-04-09T08:03:29.042Z,19.72
2024-04-09T08:05:56.597Z,19.88
2024-04-09T08:08:24.395Z,19.84
2024-04-09T08:10:51.908Z,19.99
2024-04-09T08:13:19.388Z,19.89
2024-04-09T08:15:46.858Z,20.24
2024-04-09T08:18:14.290Z,20.45
2024-04-09T08:20:43.243Z,20.68
2024-04-09T08:23:10.746Z,21.18
2024-04-09T08:25:38.486Z,21.50
2024-04-09T08:28:05.756Z,21.80
2024-04-09T08:30:34.819Z,21.79
2024-04-09T08:33:02.260Z,22.05
2024-04-09T08:35:29.602Z,21.94
2024-04-09T08:37:56.791Z,22.10
2024-04-09T08:40:24.401Z,22.15
2024-04-09T08:42:56.908Z,22.05
2024-04-09T08:45:27.280Z,21.98
2024-04-09T08:47:57.183Z,22.24
2024-04-09T08:50:26.461Z,22.43
2024-04-09T08:52:59.573Z,22.30
2024-04-09T08:55:27.559Z,22.37
2024-04-09T08:57:55.103Z,22.36
2024-04-09T09:00:22.556Z,22.55
2024-04-09T09:02:49.895Z,22.33
2024-04-09T09:05:22.405Z,22.44
2024-04-09T09:08:06.515Z,22.44
2024-04-09T09:10:35.078Z,22.71
2024-04-09T09:13:06.589Z,22.87
2024-04-09T09:15:34.338Z,22.95
2024-04-09T09:18:02.187Z,22.80
2024-04-09T09:20:29.921Z,23.31
2024-04-09T09:22:57.571Z,23.43
2024-04-09T09:25:25.218Z,23.36
2024-04-09T09:28:09.434Z,23.35
2024-04-09T09:30:38.936Z,23.49
2024-04-09T09:33:15.041Z,23.51
2024-04-09T09:35:49.506Z,23.81
2024-04-09T09:38:21.914Z,23.77
2024-04-09T09:40:50.765Z,23.87
2024-04-09T09:43:19.327Z,24.40
2024-04-09T09:45:47.277Z,24.57
2024-04-09T09:48:18.081Z,24.30
2024-04-09T09:50:45.855Z,24.42
2024-04-09T09:53:13.573Z,24.31
2024-04-09T09:55:43.922Z,24.30
2024-04-09T09:58:17.252Z,24.62
2024-04-09T10:00:47.376Z,24.67
2024-04-09T10:03:16.714Z,24.79
2024-04-09T10:05:43.968Z,24.66
2024-04-09T10:08:18.311Z,25.02
2024-04-09T10:10:49.097Z,25.13
2024-04-09T10:13:19.426Z,25.36
2024-04-09T10:15:48.419Z,25.22
2024-04-09T10:18:48.172Z,25.03
2024-04-09T10:21:29.852Z,25.36
2024-04-09T10:24:00.825Z,25.12
2024-04-09T10:26:30.491Z,25.47
2024-04-09T10:29:06.578Z,25.38
2024-04-09T10:31:43.918Z,25.51
2024-04-09T10:34:11.235Z,25.41
2024-04-09T10:36:38.912Z,25.59
2024-04-09T10:39:08.669Z,26.20
2024-04-09T10:41:36.024Z,26.50
2024-04-09T10:44:03.418Z,26.32
2024-04-09T10:46:30.710Z,26.56
2024-04-09T10:48:57.996Z,26.73
2024-04-09T10:51:25.392Z,26.95
2024-04-09T10:54:02.151Z,26.66
2024-04-09T10:56:29.489Z,26.78
2024-04-09T10:58:56.840Z,26.90
2024-04-09T11:01:24.907Z,26.89
2024-04-09T11:03:52.367Z,27.25
2024-04-09T11:06:19.652Z,27.46
2024-04-09T11:08:47.169Z,27.43
2024-04-09T11:11:15.322Z,27.41
2024-04-09T11:13:44.961Z,27.62
2024-04-09T11:16:19.515Z,27.86
2024-04-09T11:19:25.207Z,27.90
2024-04-09T11:21:53.251Z,28.16
2024-04-09T11:24:20.792Z,27.92
2024-04-09T11:26:48.153Z,27.98
2024-04-09T11:29:24.986Z,27.99
2024-04-09T11:31:53.432Z,28.28
2024-04-09T11:34:25.753Z,28.27
2024-04-09T11:36:54.752Z,27.30
2024-04-09T11:39:25.278Z,26.91
2024-04-09T11:41:54.733Z,26.15
2024-04-09T11:44:23.337Z,25.96
2024-04-09T11:46:51.241Z,26.23
2024-04-09T11:49:18.609Z,26.30
2024-04-09T11:51:46.705Z,26.46
2024-04-09T11:54:14.460Z,26.35
2024-04-09T11:56:41.698Z,25.95
2024-04-09T11:59:09.260Z,25.75
2024-04-09T12:01:36.542Z,25.52
2024-04-09T12:04:04.128Z,25.32
2024-04-09T12:06:31.478Z,25.07
2024-04-09T12:08:58.821Z,24.82
2024-04-09T12:11:27.028Z,24.60
2024-04-09T12:13:54.386Z,24.30
2024-04-09T12:16:22.021Z,24.28
2024-04-09T12:18:49.758Z,24.13
2024-04-09T12:21:17.537Z,24.09
2024-04-09T12:23:44.802Z,24.13
2024-04-09T12:26:11.948Z,24.42
2024-04-09T12:28:39.138Z,24.49
2024-04-09T12:31:06.422Z,24.45
2024-04-09T12:33:33.944Z,24.35
2024-04-09T12:36:01.433Z,24.49
2024-04-09T12:38:28.643Z,24.58
2024-04-09T12:40:55.908Z,24.51
2024-04-09T12:43:23.288Z,24.07
2024-04-09T12:45:51.425Z,23.69
2024-04-09T12:48:22.142Z,23.80
2024-04-09T12:50:50.433Z,23.93
2024-04-09T12:53:17.614Z,23.81
2024-04-09T12:55:47.380Z,23.51
2024-04-09T12:58:16.452Z,23.31
2024-04-09T13:01:01.533Z,23.57
2024-04-09T13:03:31.522Z,23.58
2024-04-09T13:05:59.641Z,23.30
2024-04-09T13:08:27.003Z,23.11
2024-04-09T13:10:54.278Z,22.91
2024-04-09T13:13:21.512Z,22.97
2024-04-09T13:16:48.128Z,23.12
2024-04-09T13:18:36.389Z,22.96
2024-04-09T13:21:04.693Z,22.81
2024-04-09T13:23:31.971Z,22.58
2024-04-09T13:25:59.979Z,22.65
2024-04-09T13:28:27.697Z,22.62
2024-04-09T13:30:55.768Z,22.71
2024-04-09T13:33:23.631Z,22.80
2024-04-09T13:35:52.064Z,22.51
2024-04-09T13:38:19.329Z,22.36
2024-04-09T13:40:46.595Z,22.53
2024-04-09T13:43:13.827Z,22.58
2024-04-09T13:45:41.057Z,22.45
2024-04-09T13:48:08.404Z,22.50
2024-04-09T13:50:36.162Z,22.49
2024-04-09T13:53:04.230Z,22.40
2024-04-09T13:55:31.459Z,22.38
2024-04-09T13:57:58.659Z,22.39
2024-04-09T14:00:27.817Z,22.58
2024-04-09T14:02:56.321Z,22.34
2024-04-09T14:05:24.824Z,22.43
2024-04-09T14:07:52.424Z,22.37
2024-04-09T14:10:19.701Z,22.41
2024-04-09T14:12:46.952Z,22.41
2024-04-09T14:15:16.042Z,22.77
2024-04-09T14:17:54.177Z,22.60
2024-04-09T14:20:22.610Z,22.62
2024-04-09T14:22:50.209Z,22.71
2024-04-09T14:25:20.294Z,22.63
2024-04-09T14:27:48.242Z,22.55
2024-04-09T14:30:17.114Z,22.29
2024-04-09T14:32:44.665Z,22.33
2024-04-09T14:35:12.914Z,22.25
2024-04-09T14:37:40.676Z,22.18
2024-04-09T14:40:08.576Z,22.17
2024-04-09T14:42:37.376Z,22.00
2024-04-09T14:45:05.023Z,21.97
2024-04-09T14:47:32.455Z,21.75
2024-04-09T14:50:01.720Z,21.59
2024-04-09T14:52:30.647Z,21.10
2024-04-09T14:54:58.088Z,20.91
2024-04-09T14:57:25.532Z,20.83
2024-04-09T14:59:52.878Z,20.85
2024-04-09T15:02:20.286Z,20.86
2024-04-09T15:04:47.613Z,20.99
2024-04-09T15:07:14.879Z,21.03
2024-04-09T15:09:43.473Z,20.88
2024-04-09T15:12:11.182Z,20.88
2024-04-09T15:14:38.686Z,20.92
2024-04-09T15:37:12.124Z,19.79
2024-04-09T15:39:39.484Z,19.70
2024-04-09T15:42:06.877Z,19.63
2024-04-09T15:44:36.446Z,19.55
2024-04-09T15:47:04.031Z,19.53
2024-04-09T15:49:31.325Z,19.49
2024-04-09T15:51:58.854Z,19.40
2024-04-09T15:54:27.118Z,19.36
2024-04-09T15:56:54.470Z,19.32
2024-04-09T15:59:21.811Z,19.22
2024-04-09T16:01:49.586Z,19.15
2024-04-09T16:04:17.005Z,19.14
2024-04-09T16:06:46.686Z,19.08
2024-04-09T16:09:17.299Z,19.03
2024-04-09T16:11:45.126Z,18.93
2024-04-09T16:14:12.470Z,18.81
2024-04-09T16:16:42.934Z,18.79
2024-04-09T16:19:12.104Z,18.74
2024-04-09T16:21:39.540Z,18.69
2024-04-09T16:24:06.949Z,18.50
2024-04-09T16:26:34.306Z,18.48
2024-04-09T16:29:03.912Z,18.49
2024-04-09T16:31:31.236Z,18.45
2024-04-09T16:33:58.546Z,18.39
2024-04-09T16:36:26.666Z,18.37
2024-04-09T16:38:53.803Z,18.28
2024-04-09T16:41:21.003Z,18.27
2024-04-09T16:43:48.367Z,18.20
2024-04-09T16:46:15.637Z,18.16
2024-04-09T16:48:42.953Z,18.13
2024-04-09T16:51:10.235Z,17.51
2024-04-09T16:53:37.460Z,16.93
2024-04-09T16:56:04.937Z,16.68
2024-04-09T16:58:32.192Z,16.48
2024-04-09T17:00:59.583Z,16.36
2024-04-09T17:03:26.913Z,16.28
2024-04-09T17:05:54.392Z,16.11
2024-04-09T17:08:22.210Z,16.09
2024-04-09T17:11:00.689Z,15.86
2024-04-09T17:13:28.798Z,15.81
2024-04-09T17:19:44.526Z,15.42
2024-04-09T17:22:11.868Z,15.27
2024-04-09T17:24:40.044Z,15.17
2024-04-09T17:27:07.282Z,15.15
2024-04-09T17:29:35.888Z,15.11
2024-04-09T17:32:03.555Z,14.92
2024-04-09T17:34:30.970Z,14.72
2024-04-09T17:36:58.444Z,14.67
2024-04-09T17:39:25.714Z,14.57
2024-04-09T17:41:53.898Z,14.49
2024-04-09T17:44:21.323Z,14.35
2024-04-09T17:46:48.992Z,14.28
2024-04-09T17:49:16.363Z,14.19
2024-04-09T17:51:43.673Z,14.18
2024-04-09T17:54:11.071Z,14.09
2024-04-09T17:56:38.395Z,14.04
2024-04-09T17:59:05.998Z,14.03
2024-04-09T18:01:34.930Z,13.95
2024-04-09T18:04:04.719Z,13.84
2024-04-09T18:06:32.309Z,13.76
2024-04-09T18:08:59.568Z,13.73
2024-04-09T18:11:27.262Z,13.64
2024-04-09T18:13:54.616Z,13.51
2024-04-09T18:16:21.853Z,13.49
2024-04-09T18:18:51.824Z,13.40
2024-04-09T18:21:22.793Z,13.30
2024-04-09T18:23:50.100Z,13.31
2024-04-09T18:26:21.489Z,13.24
2024-04-09T18:28:49.641Z,13.16
2024-04-09T18:31:17.317Z,13.08
2024-04-09T18:33:46.727Z,13.01
2024-04-09T18:36:14.398Z,13.04
2024-04-09T18:38:41.855Z,13.00
2024-04-09T18:41:11.431Z,12.96
2024-04-09T18:43:39.092Z,12.91
2024-04-09T18:46:07.756Z,12.81
2024-04-09T18:48:35.748Z,12.77
2024-04-09T18:51:08.159Z,12.73
2024-04-09T18:53:37.420Z,12.65
2024-04-09T18:56:05.069Z,12.59
2024-04-09T18:58:32.600Z,12.49
2024-04-09T19:00:59.863Z,12.33
2024-04-09T19:03:27.255Z,12.21
2024-04-09T19:05:54.508Z,12.16
2024-04-09T19:08:21.925Z,12.15
2024-04-09T19:10:49.220Z,12.04
2024-04-09T19:13:16.413Z,12.03
2024-04-09T19:15:43.616Z,11.95
2024-04-09T19:18:10.874Z,11.87
2024-04-09T19:20:38.110Z,11.84
2024-04-09T19:23:05.358Z,11.70
2024-04-09T19:25:32.647Z,11.58
2024-04-09T19:28:00.073Z,11.50
2024-04-09T19:30:27.269Z,11.41
2024-04-09T19:32:54.688Z,11.32
2024-04-09T19:35:22.015Z,11.27
2024-04-09T19:37:49.325Z,11.15
2024-04-09T19:40:16.706Z,10.94
2024-04-09T19:42:44.201Z,10.78
2024-04-09T19:45:12.159Z,10.72
2024-04-09T19:47:39.698Z,10.72
2024-04-09T19:50:07.747Z,10.69
2024-04-09T19:52:35.241Z,10.61
2024-04-09T19:55:03.142Z,10.51
2024-04-09T19:57:30.354Z,10.47
2024-04-09T19:59:58.514Z,10.31
2024-04-09T20:02:27.335Z,10.26
2024-04-09T20:04:55.220Z,10.26
2024-04-09T20:07:22.984Z,10.17
2024-04-09T20:09:50.601Z,10.14
2024-04-09T20:12:21.482Z,10.09
2024-04-09T20:14:49.851Z,10.09
2024-04-09T20:17:17.395Z,10.11
2024-04-09T20:19:45.808Z,10.11
2024-04-09T20:22:13.200Z,10.03
2024-04-09T20:24:41.086Z,9.91
2024-04-09T20:27:08.270Z,9.87
2024-04-09T20:29:35.447Z,9.77
2024-04-09T20:32:03.723Z,9.71
2024-04-09T20:34:31.195Z,9.70
2024-04-09T20:36:59.206Z,9.68
2024-04-09T20:39:26.668Z,9.64
2024-04-09T20:41:54.361Z,9.59
2024-04-09T20:44:21.810Z,9.51
2024-04-09T20:46:49.616Z,9.47
2024-04-09T20:49:17.207Z,9.30
2024-04-09T20:51:44.572Z,9.03
2024-04-09T20:54:11.806Z,8.76
2024-04-09T20:56:39.210Z,8.52
2024-04-09T20:59:06.547Z,8.39
2024-04-09T21:01:35.418Z,8.30
2024-04-09T21:04:03.692Z,8.21
2024-04-09T21:06:31.083Z,8.17
2024-04-09T21:08:58.280Z,8.12
2024-04-09T21:11:25.577Z,8.12
2024-04-09T21:13:54.103Z,8.14
2024-04-09T21:16:22.091Z,8.13
2024-04-09T21:18:49.559Z,8.17
2024-04-09T21:21:17.122Z,8.14
2024-04-09T21:23:44.376Z,8.08
2024-04-09T21:26:11.645Z,7.94
2024-04-09T21:28:38.870Z,7.83
2024-04-09T21:31:06.077Z,7.76
2024-04-09T21:33:33.450Z,7.68
2024-04-09T21:36:00.686Z,7.58
2024-04-09T21:38:28.105Z,7.55
2024-04-09T21:41:08.513Z,7.52
2024-04-09T21:43:36.498Z,7.49
2024-04-09T21:46:03.843Z,7.48
2024-04-09T21:48:31.473Z,7.53
2024-04-09T21:50:58.826Z,7.64
2024-04-09T21:53:26.481Z,7.75
2024-04-09T21:55:53.997Z,7.84
2024-04-09T21:58:21.504Z,7.83
2024-04-09T22:00:53.230Z,7.77
2024-04-09T22:03:21.108Z,7.73
2024-04-09T22:05:51.149Z,7.66
2024-04-09T22:08:18.452Z,7.60
2024-04-09T22:10:47.112Z,7.52
2024-04-09T22:13:14.480Z,7.50
2024-04-09T22:15:41.763Z,7.42
2024-04-09T22:18:09.117Z,7.44
2024-04-09T22:20:38.490Z,7.48
2024-04-09T22:23:11.625Z,7.49
2024-04-09T22:25:39.039Z,7.49
2024-04-09T22:28:06.481Z,7.49
2024-04-09T22:30:33.701Z,7.49
2024-04-09T22:33:01.085Z,7.44
2024-04-09T22:35:28.626Z,7.36
2024-04-09T22:37:57.407Z,7.28
2024-04-09T22:40:24.705Z,7.25
2024-04-09T22:42:51.991Z,7.24
2024-04-09T22:45:19.240Z,7.21
2024-04-09T22:47:46.597Z,7.24
2024-04-09T22:50:13.997Z,7.23
2024-04-09T22:52:41.266Z,7.25
2024-04-09T22:55:09.492Z,7.23
2024-04-09T22:57:36.828Z,7.22
2024-04-09T23:00:06.820Z,7.19
2024-04-09T23:02:34.434Z,7.22
2024-04-09T23:05:01.762Z,7.19
2024-04-09T23:07:29.003Z,7.21
2024-04-09T23:09:56.774Z,7.14
2024-04-09T23:12:28.260Z,7.10
2024-04-09T23:14:56.254Z,7.11
2024-04-09T23:17:23.611Z,7.06
2024-04-09T23:19:51.019Z,7.09
2024-04-09T23:22:18.693Z,7.11
2024-04-09T23:24:46.523Z,7.04
2024-04-09T23:27:13.766Z,7.03
2024-04-09T23:29:42.227Z,7.04
2024-04-09T23:32:10.171Z,7.07
2024-04-09T23:34:37.429Z,7.08
2024-04-09T23:37:04.777Z,7.06
2024-04-09T23:39:32.043Z,7.11
2024-04-09T23:42:05.881Z,7.18
2024-04-09T23:44:34.274Z,7.25
2024-04-09T23:47:03.608Z,7.24
2024-04-09T23:49:31.218Z,7.39
2024-04-09T23:51:58.558Z,7.39
2024-04-09T23:54:25.978Z,7.40
2024-04-09T23:56:53.916Z,7.48
2024-04-09T23:59:21.290Z,7.44
